Airfield :
LOGIN :

Register | Disclaimer

   EN    FR    IT 

 










Legend :    VFR   Marginal VFR   IFR   Intensive IFR   Very Intensive IFR
Visi :
Ceiling :
>= 8 km
>= 3000ft
5 to 8 km
1000 to 3000 ft
1500m to 5 km
500 to 1000 ft
800 to 1500m
200 to 500 ft
< 800m
< 200 ft
Symbols :   Thunderstorms  Fog  Heavy snow  Heavy precipitations  Wind > 20 kt
SIGMETs :     Misc.  Thunderstorms  Icing  Turbulence  Mountain Waves  Volcanic Ashes






- Airport Elevation : 1161 ft
- IATA code : RJL


LELO - Logroño-Agoncillo

CURRENT METAR :
  • 101300Z AUTO 08007KT 040V120 9999 FEW050 BKN066 15/11 Q1021

EXPIRED METARs :
  • 101230Z AUTO 09008KT 060V120 9999 FEW035 SCT050 BKN060 15/09 Q1021
  • 101200Z AUTO 09011KT 060V120 9999 FEW046 15/10 Q1021
  • 101130Z AUTO 10008KT 060V130 CAVOK 16/10 Q1021
  • 101100Z AUTO 07007KT 010V120 CAVOK 15/09 Q1021
  • 101030Z AUTO 06006KT 010V100 CAVOK 15/09 Q1021

TAF TAF LELO
Valid from the 10 at 12:00 until the 10 at 21:00 UTC


101100Z 1012/1021 09010KT 9999 SCT025 BKN045
PROB40
TEMPO 1012/1018 3000 RA SHRA SCT014 SCT025TCU



MET'MAP, your aeronautical weather chart ! - Copyright ORBIFLY December 2007 - Disclaimer

ORBIFLY MET'MAP TEAM :

Programming & Development : Alexandra Zaïnal
Concept & original design : Baudouin d'Aumeries
Assistance for programming : Marc-Olivier Méhu
Technical & hardware support : Manuel Goepfert

Contact : metmap@orbifly.com




SOURCES & CREDITS :

   NOAA